sensor_id;sensor_type;location;lat;lon;timestamp;temperature;humidity
21355;DHT22;10835;50.148;19.760;2024-03-07T00:01:48;15.70;53.20
21355;DHT22;10835;50.148;19.760;2024-03-07T00:04:17;15.80;53.40
21355;DHT22;10835;50.148;19.760;2024-03-07T00:06:45;15.80;53.60
21355;DHT22;10835;50.148;19.760;2024-03-07T00:09:13;15.70;53.90
21355;DHT22;10835;50.148;19.760;2024-03-07T00:11:42;16.00;53.70
21355;DHT22;10835;50.148;19.760;2024-03-07T00:14:13;15.70;53.60
21355;DHT22;10835;50.148;19.760;2024-03-07T00:16:42;15.30;54.10
21355;DHT22;10835;50.148;19.760;2024-03-07T00:19:10;15.10;54.90
21355;DHT22;10835;50.148;19.760;2024-03-07T00:21:41;15.20;55.30
21355;DHT22;10835;50.148;19.760;2024-03-07T00:24:10;15.20;54.90
21355;DHT22;10835;50.148;19.760;2024-03-07T00:26:38;14.90;55.00
21355;DHT22;10835;50.148;19.760;2024-03-07T00:29:07;14.70;55.30
21355;DHT22;10835;50.148;19.760;2024-03-07T00:31:37;14.60;56.00
21355;DHT22;10835;50.148;19.760;2024-03-07T00:34:05;14.90;55.70
21355;DHT22;10835;50.148;19.760;2024-03-07T00:36:43;14.70;55.50
21355;DHT22;10835;50.148;19.760;2024-03-07T00:39:11;14.80;55.70
21355;DHT22;10835;50.148;19.760;2024-03-07T00:41:40;15.20;55.50
21355;DHT22;10835;50.148;19.760;2024-03-07T00:44:08;15.30;54.70
21355;DHT22;10835;50.148;19.760;2024-03-07T00:46:38;15.20;54.60
21355;DHT22;10835;50.148;19.760;2024-03-07T00:49:06;15.30;54.70
21355;DHT22;10835;50.148;19.760;2024-03-07T00:51:35;15.30;54.20
21355;DHT22;10835;50.148;19.760;2024-03-07T00:54:05;15.50;54.20
21355;DHT22;10835;50.148;19.760;2024-03-07T00:56:34;15.60;53.40
21355;DHT22;10835;50.148;19.760;2024-03-07T00:59:03;15.20;54.10
21355;DHT22;10835;50.148;19.760;2024-03-07T01:01:33;15.20;54.40
21355;DHT22;10835;50.148;19.760;2024-03-07T01:04:05;15.10;55.00
21355;DHT22;10835;50.148;19.760;2024-03-07T01:06:34;15.20;53.90
21355;DHT22;10835;50.148;19.760;2024-03-07T01:09:04;14.80;54.50
21355;DHT22;10835;50.148;19.760;2024-03-07T01:11:41;14.90;54.80
21355;DHT22;10835;50.148;19.760;2024-03-07T01:14:11;15.00;54.90
21355;DHT22;10835;50.148;19.760;2024-03-07T01:16:40;15.30;54.70
21355;DHT22;10835;50.148;19.760;2024-03-07T01:19:10;15.40;54.20
21355;DHT22;10835;50.148;19.760;2024-03-07T01:21:39;15.80;53.90
21355;DHT22;10835;50.148;19.760;2024-03-07T01:24:07;16.10;53.00
21355;DHT22;10835;50.148;19.760;2024-03-07T01:26:36;16.10;53.00
21355;DHT22;10835;50.148;19.760;2024-03-07T01:29:04;15.90;52.90
21355;DHT22;10835;50.148;19.760;2024-03-07T01:31:34;15.70;53.10
21355;DHT22;10835;50.148;19.760;2024-03-07T01:34:03;15.60;53.20
21355;DHT22;10835;50.148;19.760;2024-03-07T01:36:32;15.10;53.60
21355;DHT22;10835;50.148;19.760;2024-03-07T01:39:01;14.80;54.50
21355;DHT22;10835;50.148;19.760;2024-03-07T01:41:30;14.50;55.10
21355;DHT22;10835;50.148;19.760;2024-03-07T01:44:00;14.30;55.80
21355;DHT22;10835;50.148;19.760;2024-03-07T01:46:29;14.10;56.20
21355;DHT22;10835;50.148;19.760;2024-03-07T01:48:58;14.40;56.10
21355;DHT22;10835;50.148;19.760;2024-03-07T01:51:27;14.80;55.00
21355;DHT22;10835;50.148;19.760;2024-03-07T01:53:57;14.90;54.80
21355;DHT22;10835;50.148;19.760;2024-03-07T01:56:26;14.90;54.50
21355;DHT22;10835;50.148;19.760;2024-03-07T01:58:55;14.80;54.70
21355;DHT22;10835;50.148;19.760;2024-03-07T02:01:23;15.00;54.60
21355;DHT22;10835;50.148;19.760;2024-03-07T02:03:52;15.10;53.60
21355;DHT22;10835;50.148;19.760;2024-03-07T02:06:21;14.90;53.90
21355;DHT22;10835;50.148;19.760;2024-03-07T02:08:49;14.80;54.30
21355;DHT22;10835;50.148;19.760;2024-03-07T02:11:19;14.80;54.30
21355;DHT22;10835;50.148;19.760;2024-03-07T02:13:48;14.50;54.80
21355;DHT22;10835;50.148;19.760;2024-03-07T02:16:17;14.90;55.00
21355;DHT22;10835;50.148;19.760;2024-03-07T02:18:45;15.10;54.00
21355;DHT22;10835;50.148;19.760;2024-03-07T02:21:15;15.60;53.70
21355;DHT22;10835;50.148;19.760;2024-03-07T02:23:44;15.90;52.90
21355;DHT22;10835;50.148;19.760;2024-03-07T02:26:12;16.30;52.20
21355;DHT22;10835;50.148;19.760;2024-03-07T02:28:41;16.60;51.20
21355;DHT22;10835;50.148;19.760;2024-03-07T02:31:10;16.40;51.40
21355;DHT22;10835;50.148;19.760;2024-03-07T02:33:39;15.70;52.10
21355;DHT22;10835;50.148;19.760;2024-03-07T02:36:08;15.60;52.70
21355;DHT22;10835;50.148;19.760;2024-03-07T02:38:38;16.00;52.90
21355;DHT22;10835;50.148;19.760;2024-03-07T02:41:07;16.50;52.00
21355;DHT22;10835;50.148;19.760;2024-03-07T02:43:35;16.70;51.70
21355;DHT22;10835;50.148;19.760;2024-03-07T02:46:05;16.70;51.10
21355;DHT22;10835;50.148;19.760;2024-03-07T02:48:34;16.40;51.20
21355;DHT22;10835;50.148;19.760;2024-03-07T02:51:02;16.40;51.30
21355;DHT22;10835;50.148;19.760;2024-03-07T02:53:32;16.30;51.00
21355;DHT22;10835;50.148;19.760;2024-03-07T02:56:02;15.70;52.10
21355;DHT22;10835;50.148;19.760;2024-03-07T02:58:35;15.90;52.60
21355;DHT22;10835;50.148;19.760;2024-03-07T03:01:03;16.00;52.20
21355;DHT22;10835;50.148;19.760;2024-03-07T03:03:32;16.10;51.80
21355;DHT22;10835;50.148;19.760;2024-03-07T03:06:01;15.80;52.40
21355;DHT22;10835;50.148;19.760;2024-03-07T03:08:29;15.90;52.10
21355;DHT22;10835;50.148;19.760;2024-03-07T03:10:58;15.90;51.80
21355;DHT22;10835;50.148;19.760;2024-03-07T03:13:28;15.90;52.40
21355;DHT22;10835;50.148;19.760;2024-03-07T03:15:57;16.30;52.20
21355;DHT22;10835;50.148;19.760;2024-03-07T03:18:25;16.60;51.40
21355;DHT22;10835;50.148;19.760;2024-03-07T03:20:53;16.80;50.70
21355;DHT22;10835;50.148;19.760;2024-03-07T03:23:22;16.30;50.70
21355;DHT22;10835;50.148;19.760;2024-03-07T03:25:50;15.80;51.40
21355;DHT22;10835;50.148;19.760;2024-03-07T03:28:19;15.60;52.10
21355;DHT22;10835;50.148;19.760;2024-03-07T03:30:50;15.50;51.80
21355;DHT22;10835;50.148;19.760;2024-03-07T03:33:19;15.30;52.40
21355;DHT22;10835;50.148;19.760;2024-03-07T03:35:48;14.90;52.90
21355;DHT22;10835;50.148;19.760;2024-03-07T03:38:17;14.70;53.20
21355;DHT22;10835;50.148;19.760;2024-03-07T03:40:47;14.80;53.60
21355;DHT22;10835;50.148;19.760;2024-03-07T03:43:15;15.10;53.30
21355;DHT22;10835;50.148;19.760;2024-03-07T03:45:44;15.40;52.60
21355;DHT22;10835;50.148;19.760;2024-03-07T03:48:16;15.50;52.20
21355;DHT22;10835;50.148;19.760;2024-03-07T03:50:45;15.50;51.80
21355;DHT22;10835;50.148;19.760;2024-03-07T03:53:14;15.50;52.30
21355;DHT22;10835;50.148;19.760;2024-03-07T03:55:43;15.70;52.10
21355;DHT22;10835;50.148;19.760;2024-03-07T03:58:11;15.80;51.30
21355;DHT22;10835;50.148;19.760;2024-03-07T04:00:40;15.60;51.70
21355;DHT22;10835;50.148;19.760;2024-03-07T04:03:08;15.30;52.20
21355;DHT22;10835;50.148;19.760;2024-03-07T04:05:38;15.20;52.00
21355;DHT22;10835;50.148;19.760;2024-03-07T04:08:08;14.90;52.30
21355;DHT22;10835;50.148;19.760;2024-03-07T04:10:37;14.70;52.70
21355;DHT22;10835;50.148;19.760;2024-03-07T04:13:06;14.70;52.90
21355;DHT22;10835;50.148;19.760;2024-03-07T04:15:35;14.90;52.70
21355;DHT22;10835;50.148;19.760;2024-03-07T04:18:04;15.30;52.50
21355;DHT22;10835;50.148;19.760;2024-03-07T04:20:33;14.90;51.80
21355;DHT22;10835;50.148;19.760;2024-03-07T04:23:03;14.40;52.80
21355;DHT22;10835;50.148;19.760;2024-03-07T04:25:34;14.10;53.30
21355;DHT22;10835;50.148;19.760;2024-03-07T04:28:03;14.20;53.30
21355;DHT22;10835;50.148;19.760;2024-03-07T04:30:32;14.00;54.00
21355;DHT22;10835;50.148;19.760;2024-03-07T04:33:00;14.00;54.20
21355;DHT22;10835;50.148;19.760;2024-03-07T04:35:29;14.70;53.80
21355;DHT22;10835;50.148;19.760;2024-03-07T04:37:58;14.80;52.40
21355;DHT22;10835;50.148;19.760;2024-03-07T04:40:28;14.10;52.80
21355;DHT22;10835;50.148;19.760;2024-03-07T04:42:56;13.50;54.00
21355;DHT22;10835;50.148;19.760;2024-03-07T04:45:25;13.50;55.10
21355;DHT22;10835;50.148;19.760;2024-03-07T04:47:53;13.70;54.40
21355;DHT22;10835;50.148;19.760;2024-03-07T04:50:22;14.00;54.30
21355;DHT22;10835;50.148;19.760;2024-03-07T04:52:50;13.80;54.00
21355;DHT22;10835;50.148;19.760;2024-03-07T04:55:19;14.10;54.10
21355;DHT22;10835;50.148;19.760;2024-03-07T04:57:48;14.00;53.90
21355;DHT22;10835;50.148;19.760;2024-03-07T05:00:18;14.20;54.00
21355;DHT22;10835;50.148;19.760;2024-03-07T05:02:48;14.40;53.70
21355;DHT22;10835;50.148;19.760;2024-03-07T05:05:18;14.30;53.40
21355;DHT22;10835;50.148;19.760;2024-03-07T05:07:50;14.20;53.40
21355;DHT22;10835;50.148;19.760;2024-03-07T05:10:20;13.90;54.00
21355;DHT22;10835;50.148;19.760;2024-03-07T05:12:50;14.10;54.50
21355;DHT22;10835;50.148;19.760;2024-03-07T05:15:18;14.80;53.40
21355;DHT22;10835;50.148;19.760;2024-03-07T05:17:47;14.90;52.40
21355;DHT22;10835;50.148;19.760;2024-03-07T05:20:15;14.40;52.30
21355;DHT22;10835;50.148;19.760;2024-03-07T05:22:44;14.20;53.00
21355;DHT22;10835;50.148;19.760;2024-03-07T05:25:18;14.10;53.80
21355;DHT22;10835;50.148;19.760;2024-03-07T05:27:47;14.30;53.60
21355;DHT22;10835;50.148;19.760;2024-03-07T05:30:18;14.50;53.00
21355;DHT22;10835;50.148;19.760;2024-03-07T05:32:50;14.60;52.80
21355;DHT22;10835;50.148;19.760;2024-03-07T05:35:19;14.60;53.00
21355;DHT22;10835;50.148;19.760;2024-03-07T05:37:49;14.70;52.70
21355;DHT22;10835;50.148;19.760;2024-03-07T05:40:19;15.00;52.00
21355;DHT22;10835;50.148;19.760;2024-03-07T05:42:47;14.90;51.70
21355;DHT22;10835;50.148;19.760;2024-03-07T05:45:16;15.00;52.00
21355;DHT22;10835;50.148;19.760;2024-03-07T05:47:47;14.90;51.60
21355;DHT22;10835;50.148;19.760;2024-03-07T05:50:16;15.00;52.00
21355;DHT22;10835;50.148;19.760;2024-03-07T05:52:45;15.50;51.40
21355;DHT22;10835;50.148;19.760;2024-03-07T05:55:15;15.60;50.90
21355;DHT22;10835;50.148;19.760;2024-03-07T05:57:47;15.10;51.20
21355;DHT22;10835;50.148;19.760;2024-03-07T06:00:16;14.60;52.40
21355;DHT22;10835;50.148;19.760;2024-03-07T06:02:56;14.30;52.50
21355;DHT22;10835;50.148;19.760;2024-03-07T06:05:25;14.20;53.80
21355;DHT22;10835;50.148;19.760;2024-03-07T06:07:55;14.30;53.30
21355;DHT22;10835;50.148;19.760;2024-03-07T06:10:24;14.20;53.00
21355;DHT22;10835;50.148;19.760;2024-03-07T06:12:52;14.30;53.30
21355;DHT22;10835;50.148;19.760;2024-03-07T06:15:24;14.50;53.10
21355;DHT22;10835;50.148;19.760;2024-03-07T06:17:52;14.70;52.70
21355;DHT22;10835;50.148;19.760;2024-03-07T06:20:22;14.90;52.40
21355;DHT22;10835;50.148;19.760;2024-03-07T06:22:52;15.10;51.90
21355;DHT22;10835;50.148;19.760;2024-03-07T06:25:20;14.90;51.90
21355;DHT22;10835;50.148;19.760;2024-03-07T06:28:01;15.20;52.20
21355;DHT22;10835;50.148;19.760;2024-03-07T06:30:36;15.40;51.60
21355;DHT22;10835;50.148;19.760;2024-03-07T06:33:04;14.90;51.60
21355;DHT22;10835;50.148;19.760;2024-03-07T06:35:34;14.80;52.40
21355;DHT22;10835;50.148;19.760;2024-03-07T06:38:04;14.40;52.70
21355;DHT22;10835;50.148;19.760;2024-03-07T06:40:33;14.30;53.00
21355;DHT22;10835;50.148;19.760;2024-03-07T06:43:02;13.90;53.10
21355;DHT22;10835;50.148;19.760;2024-03-07T06:45:31;13.90;53.60
21355;DHT22;10835;50.148;19.760;2024-03-07T06:48:01;13.60;53.90
21355;DHT22;10835;50.148;19.760;2024-03-07T06:50:29;13.50;54.30
21355;DHT22;10835;50.148;19.760;2024-03-07T06:53:06;13.90;54.50
21355;DHT22;10835;50.148;19.760;2024-03-07T06:55:36;14.30;53.80
21355;DHT22;10835;50.148;19.760;2024-03-07T06:58:05;14.60;52.90
21355;DHT22;10835;50.148;19.760;2024-03-07T07:00:33;15.40;52.40
21355;DHT22;10835;50.148;19.760;2024-03-07T07:03:05;15.40;50.90
21355;DHT22;10835;50.148;19.760;2024-03-07T07:05:34;15.90;51.30
21355;DHT22;10835;50.148;19.760;2024-03-07T07:08:04;16.10;50.40
21355;DHT22;10835;50.148;19.760;2024-03-07T07:10:35;15.60;50.00
21355;DHT22;10835;50.148;19.760;2024-03-07T07:13:03;15.20;50.70
21355;DHT22;10835;50.148;19.760;2024-03-07T07:15:32;14.90;51.10
21355;DHT22;10835;50.148;19.760;2024-03-07T07:18:01;14.70;51.40
21355;DHT22;10835;50.148;19.760;2024-03-07T07:20:30;14.20;52.50
21355;DHT22;10835;50.148;19.760;2024-03-07T07:23:02;14.30;52.80
21355;DHT22;10835;50.148;19.760;2024-03-07T07:25:31;14.40;52.40
21355;DHT22;10835;50.148;19.760;2024-03-07T07:28:02;14.20;52.50
21355;DHT22;10835;50.148;19.760;2024-03-07T07:30:32;14.50;52.40
21355;DHT22;10835;50.148;19.760;2024-03-07T07:33:01;14.50;52.00
21355;DHT22;10835;50.148;19.760;2024-03-07T07:35:30;14.60;51.70
21355;DHT22;10835;50.148;19.760;2024-03-07T07:38:00;14.80;51.80
21355;DHT22;10835;50.148;19.760;2024-03-07T07:40:28;14.70;51.40
21355;DHT22;10835;50.148;19.760;2024-03-07T07:42:58;14.70;51.70
21355;DHT22;10835;50.148;19.760;2024-03-07T07:45:29;14.80;51.50
21355;DHT22;10835;50.148;19.760;2024-03-07T07:48:00;14.80;51.50
21355;DHT22;10835;50.148;19.760;2024-03-07T07:50:28;14.80;51.40
21355;DHT22;10835;50.148;19.760;2024-03-07T07:52:58;14.90;51.70
21355;DHT22;10835;50.148;19.760;2024-03-07T07:55:28;14.70;51.30
21355;DHT22;10835;50.148;19.760;2024-03-07T07:57:58;14.50;51.60
21355;DHT22;10835;50.148;19.760;2024-03-07T08:00:29;14.40;51.50
21355;DHT22;10835;50.148;19.760;2024-03-07T08:02:59;14.40;52.00
21355;DHT22;10835;50.148;19.760;2024-03-07T08:05:31;14.70;51.90
21355;DHT22;10835;50.148;19.760;2024-03-07T08:08:01;14.60;51.80
21355;DHT22;10835;50.148;19.760;2024-03-07T08:10:32;14.50;51.60
21355;DHT22;10835;50.148;19.760;2024-03-07T08:13:02;14.90;52.00
21355;DHT22;10835;50.148;19.760;2024-03-07T08:15:32;15.00;51.10
21355;DHT22;10835;50.148;19.760;2024-03-07T08:18:00;15.20;51.10
21355;DHT22;10835;50.148;19.760;2024-03-07T08:20:29;15.30;50.70
21355;DHT22;10835;50.148;19.760;2024-03-07T08:22:58;15.10;50.70
21355;DHT22;10835;50.148;19.760;2024-03-07T08:25:28;15.10;50.80
21355;DHT22;10835;50.148;19.760;2024-03-07T08:27:57;14.90;50.90
21355;DHT22;10835;50.148;19.760;2024-03-07T08:30:26;15.10;50.90
21355;DHT22;10835;50.148;19.760;2024-03-07T08:32:58;15.00;50.80
21355;DHT22;10835;50.148;19.760;2024-03-07T08:35:29;14.60;51.60
21355;DHT22;10835;50.148;19.760;2024-03-07T08:37:58;15.00;51.80
21355;DHT22;10835;50.148;19.760;2024-03-07T08:40:29;15.00;51.40
21355;DHT22;10835;50.148;19.760;2024-03-07T08:43:01;15.50;51.00
21355;DHT22;10835;50.148;19.760;2024-03-07T08:45:31;15.70;50.10
21355;DHT22;10835;50.148;19.760;2024-03-07T08:48:04;15.30;50.30
21355;DHT22;10835;50.148;19.760;2024-03-07T08:50:35;15.30;50.90
21355;DHT22;10835;50.148;19.760;2024-03-07T08:53:06;15.40;50.30
21355;DHT22;10835;50.148;19.760;2024-03-07T08:55:35;15.10;50.20
21355;DHT22;10835;50.148;19.760;2024-03-07T08:58:05;15.00;50.70
21355;DHT22;10835;50.148;19.760;2024-03-07T09:00:35;15.40;51.00
21355;DHT22;10835;50.148;19.760;2024-03-07T09:03:07;15.70;50.00
21355;DHT22;10835;50.148;19.760;2024-03-07T09:05:40;15.80;49.80
21355;DHT22;10835;50.148;19.760;2024-03-07T09:08:09;15.80;49.20
21355;DHT22;10835;50.148;19.760;2024-03-07T09:10:37;15.70;49.80
21355;DHT22;10835;50.148;19.760;2024-03-07T09:13:09;15.80;49.50
21355;DHT22;10835;50.148;19.760;2024-03-07T09:15:38;15.80;49.10
21355;DHT22;10835;50.148;19.760;2024-03-07T09:18:07;15.70;49.40
21355;DHT22;10835;50.148;19.760;2024-03-07T09:20:36;15.70;49.40
21355;DHT22;10835;50.148;19.760;2024-03-07T09:23:05;15.60;49.30
21355;DHT22;10835;50.148;19.760;2024-03-07T09:25:34;15.30;49.50
21355;DHT22;10835;50.148;19.760;2024-03-07T09:28:03;14.70;50.40
21355;DHT22;10835;50.148;19.760;2024-03-07T09:30:33;14.70;50.90
21355;DHT22;10835;50.148;19.760;2024-03-07T09:33:07;14.80;51.10
21355;DHT22;10835;50.148;19.760;2024-03-07T09:35:39;14.80;51.00
21355;DHT22;10835;50.148;19.760;2024-03-07T09:38:08;15.20;50.80
21355;DHT22;10835;50.148;19.760;2024-03-07T09:40:36;14.90;50.50
21355;DHT22;10835;50.148;19.760;2024-03-07T09:43:06;14.70;50.80
21355;DHT22;10835;50.148;19.760;2024-03-07T09:45:38;14.90;51.20
21355;DHT22;10835;50.148;19.760;2024-03-07T09:48:15;15.00;50.70
21355;DHT22;10835;50.148;19.760;2024-03-07T09:50:46;14.50;50.70
21355;DHT22;10835;50.148;19.760;2024-03-07T09:53:17;14.20;51.60
21355;DHT22;10835;50.148;19.760;2024-03-07T09:55:47;14.70;51.80
21355;DHT22;10835;50.148;19.760;2024-03-07T09:58:18;14.70;51.40
21355;DHT22;10835;50.148;19.760;2024-03-07T10:00:48;14.80;51.10
21355;DHT22;10835;50.148;19.760;2024-03-07T10:03:20;14.90;50.90
21355;DHT22;10835;50.148;19.760;2024-03-07T10:05:51;15.10;50.90
21355;DHT22;10835;50.148;19.760;2024-03-07T10:08:21;15.50;50.60
21355;DHT22;10835;50.148;19.760;2024-03-07T10:10:52;15.80;49.50
21355;DHT22;10835;50.148;19.760;2024-03-07T10:13:22;15.90;49.50
21355;DHT22;10835;50.148;19.760;2024-03-07T10:15:52;15.90;49.20
21355;DHT22;10835;50.148;19.760;2024-03-07T10:18:28;15.70;49.10
21355;DHT22;10835;50.148;19.760;2024-03-07T10:20:57;15.70;49.10
21355;DHT22;10835;50.148;19.760;2024-03-07T10:23:27;15.80;49.40
21355;DHT22;10835;50.148;19.760;2024-03-07T10:25:56;15.70;49.10
21355;DHT22;10835;50.148;19.760;2024-03-07T10:28:26;15.30;49.40
21355;DHT22;10835;50.148;19.760;2024-03-07T10:30:55;15.40;49.80
21355;DHT22;10835;50.148;19.760;2024-03-07T10:33:28;15.20;49.80
21355;DHT22;10835;50.148;19.760;2024-03-07T10:36:00;14.90;50.60
21355;DHT22;10835;50.148;19.760;2024-03-07T10:38:28;15.20;50.90
21355;DHT22;10835;50.148;19.760;2024-03-07T10:40:58;15.80;50.10
21355;DHT22;10835;50.148;19.760;2024-03-07T10:43:29;16.00;49.30
21355;DHT22;10835;50.148;19.760;2024-03-07T10:46:09;16.00;48.90
21355;DHT22;10835;50.148;19.760;2024-03-07T10:48:39;15.50;49.10
21355;DHT22;10835;50.148;19.760;2024-03-07T10:51:18;14.90;49.90
21355;DHT22;10835;50.148;19.760;2024-03-07T10:53:59;14.80;50.60
21355;DHT22;10835;50.148;19.760;2024-03-07T10:56:45;15.40;50.30
21355;DHT22;10835;50.148;19.760;2024-03-07T10:59:18;15.20;50.00
21355;DHT22;10835;50.148;19.760;2024-03-07T11:01:53;15.20;49.70
21355;DHT22;10835;50.148;19.760;2024-03-07T11:04:24;14.50;50.50
21355;DHT22;10835;50.148;19.760;2024-03-07T11:06:54;15.10;51.30
21355;DHT22;10835;50.148;19.760;2024-03-07T11:09:23;15.00;50.60
21355;DHT22;10835;50.148;19.760;2024-03-07T11:11:56;15.30;50.10
21355;DHT22;10835;50.148;19.760;2024-03-07T11:14:27;14.90;50.20
21355;DHT22;10835;50.148;19.760;2024-03-07T11:16:56;14.60;50.60
21355;DHT22;10835;50.148;19.760;2024-03-07T11:19:27;14.90;51.30
21355;DHT22;10835;50.148;19.760;2024-03-07T11:21:57;14.80;50.50
21355;DHT22;10835;50.148;19.760;2024-03-07T11:24:27;14.30;51.10
21355;DHT22;10835;50.148;19.760;2024-03-07T11:26:56;13.90;51.90
21355;DHT22;10835;50.148;19.760;2024-03-07T11:29:42;14.00;52.50
21355;DHT22;10835;50.148;19.760;2024-03-07T11:32:13;14.30;51.90
21355;DHT22;10835;50.148;19.760;2024-03-07T11:34:44;14.10;51.50
21355;DHT22;10835;50.148;19.760;2024-03-07T11:37:18;13.50;52.40
21355;DHT22;10835;50.148;19.760;2024-03-07T11:39:50;13.30;53.10
21355;DHT22;10835;50.148;19.760;2024-03-07T11:42:25;14.00;53.40
21355;DHT22;10835;50.148;19.760;2024-03-07T11:44:55;14.40;51.80
21355;DHT22;10835;50.148;19.760;2024-03-07T11:47:34;14.60;51.30
21355;DHT22;10835;50.148;19.760;2024-03-07T11:50:07;15.30;50.50
21355;DHT22;10835;50.148;19.760;2024-03-07T11:52:39;15.40;49.70
21355;DHT22;10835;50.148;19.760;2024-03-07T11:55:09;15.60;49.30
21355;DHT22;10835;50.148;19.760;2024-03-07T11:57:39;15.60;48.70
21355;DHT22;10835;50.148;19.760;2024-03-07T12:00:12;15.90;48.60
21355;DHT22;10835;50.148;19.760;2024-03-07T12:02:42;16.40;48.00
21355;DHT22;10835;50.148;19.760;2024-03-07T12:05:13;16.30;47.80
21355;DHT22;10835;50.148;19.760;2024-03-07T12:07:43;16.50;47.70
21355;DHT22;10835;50.148;19.760;2024-03-07T12:10:12;16.30;47.40
21355;DHT22;10835;50.148;19.760;2024-03-07T12:12:42;16.50;48.00
21355;DHT22;10835;50.148;19.760;2024-03-07T12:15:11;16.80;47.50
21355;DHT22;10835;50.148;19.760;2024-03-07T12:17:47;17.10;47.10
21355;DHT22;10835;50.148;19.760;2024-03-07T12:20:19;17.50;46.50
21355;DHT22;10835;50.148;19.760;2024-03-07T12:22:59;17.20;46.00
21355;DHT22;10835;50.148;19.760;2024-03-07T12:25:30;17.00;46.50
21355;DHT22;10835;50.148;19.760;2024-03-07T12:28:01;16.70;46.40
21355;DHT22;10835;50.148;19.760;2024-03-07T12:30:34;16.20;47.20
21355;DHT22;10835;50.148;19.760;2024-03-07T12:33:05;16.30;47.90
21355;DHT22;10835;50.148;19.760;2024-03-07T12:35:37;16.20;48.00
21355;DHT22;10835;50.148;19.760;2024-03-07T12:38:07;16.30;47.80
21355;DHT22;10835;50.148;19.760;2024-03-07T12:40:37;16.70;47.40
21355;DHT22;10835;50.148;19.760;2024-03-07T12:43:16;16.50;47.30
21355;DHT22;10835;50.148;19.760;2024-03-07T12:45:47;15.90;47.70
21355;DHT22;10835;50.148;19.760;2024-03-07T12:48:16;16.10;48.20
21355;DHT22;10835;50.148;19.760;2024-03-07T12:50:47;16.70;48.10
21355;DHT22;10835;50.148;19.760;2024-03-07T12:53:20;16.90;47.20
21355;DHT22;10835;50.148;19.760;2024-03-07T12:55:49;17.50;46.80
21355;DHT22;10835;50.148;19.760;2024-03-07T12:58:19;18.10;46.00
21355;DHT22;10835;50.148;19.760;2024-03-07T13:00:49;18.50;45.30
21355;DHT22;10835;50.148;19.760;2024-03-07T13:03:17;18.80;44.90
21355;DHT22;10835;50.148;19.760;2024-03-07T13:05:47;18.40;44.00
21355;DHT22;10835;50.148;19.760;2024-03-07T13:08:16;17.70;44.90
21355;DHT22;10835;50.148;19.760;2024-03-07T13:10:45;17.60;45.70
21355;DHT22;10835;50.148;19.760;2024-03-07T13:13:17;17.70;45.30
21355;DHT22;10835;50.148;19.760;2024-03-07T13:15:47;17.30;45.70
21355;DHT22;10835;50.148;19.760;2024-03-07T13:18:15;16.90;46.30
21355;DHT22;10835;50.148;19.760;2024-03-07T13:20:44;17.00;46.70
21355;DHT22;10835;50.148;19.760;2024-03-07T13:23:14;17.30;46.80
21355;DHT22;10835;50.148;19.760;2024-03-07T13:25:43;17.40;46.40
21355;DHT22;10835;50.148;19.760;2024-03-07T13:28:12;17.20;46.00
21355;DHT22;10835;50.148;19.760;2024-03-07T13:30:44;17.40;46.20
21355;DHT22;10835;50.148;19.760;2024-03-07T13:33:16;17.40;46.30
21355;DHT22;10835;50.148;19.760;2024-03-07T13:35:45;17.70;46.00
21355;DHT22;10835;50.148;19.760;2024-03-07T13:38:15;17.40;45.30
21355;DHT22;10835;50.148;19.760;2024-03-07T13:40:44;17.20;45.70
21355;DHT22;10835;50.148;19.760;2024-03-07T13:43:12;17.10;46.20
21355;DHT22;10835;50.148;19.760;2024-03-07T13:45:42;17.20;46.00
21355;DHT22;10835;50.148;19.760;2024-03-07T13:48:11;17.60;45.60
21355;DHT22;10835;50.148;19.760;2024-03-07T13:50:42;18.10;45.20
21355;DHT22;10835;50.148;19.760;2024-03-07T13:53:26;18.20;44.40
21355;DHT22;10835;50.148;19.760;2024-03-07T13:56:22;18.30;44.50
21355;DHT22;10835;50.148;19.760;2024-03-07T13:59:17;18.50;43.90
21355;DHT22;10835;50.148;19.760;2024-03-07T14:01:59;18.50;43.60
21355;DHT22;10835;50.148;19.760;2024-03-07T14:07:56;17.10;45.00
21355;DHT22;10835;50.148;19.760;2024-03-07T14:13:42;16.60;46.00
21355;DHT22;10835;50.148;19.760;2024-03-07T14:16:55;16.70;46.20
21355;DHT22;10835;50.148;19.760;2024-03-07T14:23:18;16.30;46.90
21355;DHT22;10835;50.148;19.760;2024-03-07T14:26:12;16.40;46.60
21355;DHT22;10835;50.148;19.760;2024-03-07T14:28:55;16.70;46.50
21355;DHT22;10835;50.148;19.760;2024-03-07T14:31:31;16.90;46.20
21355;DHT22;10835;50.148;19.760;2024-03-07T14:34:08;17.40;45.60
21355;DHT22;10835;50.148;19.760;2024-03-07T14:36:43;17.50;45.50
21355;DHT22;10835;50.148;19.760;2024-03-07T14:39:13;17.50;45.00
21355;DHT22;10835;50.148;19.760;2024-03-07T14:41:47;17.50;44.80
21355;DHT22;10835;50.148;19.760;2024-03-07T14:44:19;17.20;44.90
21355;DHT22;10835;50.148;19.760;2024-03-07T14:46:51;17.00;45.10
21355;DHT22;10835;50.148;19.760;2024-03-07T14:49:22;17.10;45.50
21355;DHT22;10835;50.148;19.760;2024-03-07T14:51:51;16.90;45.80
21355;DHT22;10835;50.148;19.760;2024-03-07T14:54:27;17.10;45.70
21355;DHT22;10835;50.148;19.760;2024-03-07T14:56:57;17.50;45.30
21355;DHT22;10835;50.148;19.760;2024-03-07T14:59:27;18.20;44.90
21355;DHT22;10835;50.148;19.760;2024-03-07T15:01:55;18.40;43.50
21355;DHT22;10835;50.148;19.760;2024-03-07T15:04:27;18.00;43.50
21355;DHT22;10835;50.148;19.760;2024-03-07T15:06:59;17.40;44.20
21355;DHT22;10835;50.148;19.760;2024-03-07T15:09:29;17.10;44.70
21355;DHT22;10835;50.148;19.760;2024-03-07T15:12:02;17.50;45.50
21355;DHT22;10835;50.148;19.760;2024-03-07T15:14:35;17.90;44.10
21355;DHT22;10835;50.148;19.760;2024-03-07T15:17:08;17.40;43.80
21355;DHT22;10835;50.148;19.760;2024-03-07T15:19:36;17.10;44.10
21355;DHT22;10835;50.148;19.760;2024-03-07T15:22:05;16.70;44.70
21355;DHT22;10835;50.148;19.760;2024-03-07T15:24:34;16.80;45.70
21355;DHT22;10835;50.148;19.760;2024-03-07T15:27:04;16.50;45.00
21355;DHT22;10835;50.148;19.760;2024-03-07T15:29:35;15.80;46.00
21355;DHT22;10835;50.148;19.760;2024-03-07T15:32:04;15.90;46.10
21355;DHT22;10835;50.148;19.760;2024-03-07T15:34:36;15.70;46.70
21355;DHT22;10835;50.148;19.760;2024-03-07T15:37:05;16.00;46.60
21355;DHT22;10835;50.148;19.760;2024-03-07T15:39:35;16.40;46.00
21355;DHT22;10835;50.148;19.760;2024-03-07T15:42:06;16.60;45.20
21355;DHT22;10835;50.148;19.760;2024-03-07T15:44:39;16.60;44.80
21355;DHT22;10835;50.148;19.760;2024-03-07T15:47:10;16.80;45.00